Time;durP1;ratioP1;P1;durP2;ratioP2;P2;SDS_P1;SDS_P2;PMS_P1;PMS_P2;Temp;Humidity;BMP_temperature;BMP_pressure;BME280_temperature;BME280_humidity;BME280_pressure;Samples;Min_cycle;Max_cycle;Signal;HPM_P1;HPM_P2
2022/06/06 00:02:00;;;;;;;;;;;15.30;99.90;;;;;;5059448;28;19924;-78
2022/06/06 00:04:27;;;;;;;;;;;15.30;99.90;;;;;;5003697;28;19920;-81
2022/06/06 00:06:58;;;;;;;;;;;15.30;99.90;;;;;;5060250;28;19916;-80
2022/06/06 00:09:24;;;;;;;;;;;15.30;99.90;;;;;;5054630;28;19928;-81
2022/06/06 00:11:50;;;;;;;;;;;15.30;99.90;;;;;;5024843;28;19921;-80
2022/06/06 00:14:16;;;;;;;;;;;15.30;99.90;;;;;;5024247;28;20023;-78
2022/06/06 00:16:41;;;;;;;;;;;15.30;99.90;;;;;;5008178;28;20344;-77
2022/06/06 00:19:08;;;;;;;;;;;15.30;99.90;;;;;;5023651;28;20012;-81
2022/06/06 00:21:36;;;;;;;;;;;15.30;99.90;;;;;;5030924;28;19952;-81
2022/06/06 00:24:03;;;;;;;;;;;15.30;99.90;;;;;;5034496;28;20338;-78
2022/06/06 00:26:29;;;;;;;;;;;15.30;99.90;;;;;;5050404;28;19920;-79
2022/06/06 00:28:58;;;;;;;;;;;15.20;99.90;;;;;;5018291;28;20329;-81
2022/06/06 00:36:56;;;;;;;;;;;15.20;99.90;;;;;;5013938;28;20392;-82
2022/06/06 00:39:21;;;;;;;;;;;15.20;99.90;;;;;;5034231;28;19987;-80
2022/06/06 00:41:49;;;;;;;;;;;15.20;99.90;;;;;;5026714;28;19940;-79
2022/06/06 00:44:19;;;;;;;;;;;15.20;99.90;;;;;;5025980;28;19944;-79
2022/06/06 00:46:54;;;;;;;;;;;15.20;99.90;;;;;;5069412;28;19924;-79
2022/06/06 00:49:34;;;;;;;;;;;15.20;99.90;;;;;;5021976;28;20346;-77
2022/06/06 00:52:01;;;;;;;;;;;15.20;99.90;;;;;;5017938;28;19924;-78
2022/06/06 00:54:28;;;;;;;;;;;15.20;99.90;;;;;;5050254;28;19996;-79
2022/06/06 00:56:57;;;;;;;;;;;15.20;99.90;;;;;;5021774;28;19916;-79
2022/06/06 00:59:24;;;;;;;;;;;15.20;99.90;;;;;;5023282;28;20367;-78
2022/06/06 01:01:50;;;;;;;;;;;15.20;99.90;;;;;;5029760;28;20003;-79
2022/06/06 01:04:18;;;;;;;;;;;15.10;99.90;;;;;;5026787;28;20003;-79
2022/06/06 01:06:47;;;;;;;;;;;15.10;99.90;;;;;;5020278;28;19917;-79
2022/06/06 01:09:14;;;;;;;;;;;15.10;99.90;;;;;;5016642;28;19960;-78
2022/06/06 01:11:42;;;;;;;;;;;15.20;99.90;;;;;;5067539;28;19924;-80
2022/06/06 01:14:09;;;;;;;;;;;15.10;99.90;;;;;;5065229;28;20350;-78
2022/06/06 01:16:41;;;;;;;;;;;15.10;99.90;;;;;;5021727;28;19986;-79
2022/06/06 01:19:18;;;;;;;;;;;15.10;99.90;;;;;;5041913;28;19932;-79
2022/06/06 01:21:56;;;;;;;;;;;15.20;99.90;;;;;;5050419;28;19923;-78
2022/06/06 01:24:34;;;;;;;;;;;15.10;99.90;;;;;;5026144;28;19990;-80
2022/06/06 01:27:05;;;;;;;;;;;15.20;99.90;;;;;;5020031;28;20357;-79
2022/06/06 01:29:34;;;;;;;;;;;15.10;99.90;;;;;;5019363;28;19928;-80
2022/06/06 01:32:02;;;;;;;;;;;15.20;99.90;;;;;;5019172;28;19948;-81
2022/06/06 01:34:29;;;;;;;;;;;15.10;99.90;;;;;;5025773;28;19917;-80
2022/06/06 01:36:55;;;;;;;;;;;15.10;99.90;;;;;;5003447;28;19917;-81
2022/06/06 01:39:22;;;;;;;;;;;15.10;99.90;;;;;;5024556;28;19925;-80
2022/06/06 01:42:03;;;;;;;;;;;15.00;99.90;;;;;;5005469;28;20390;-78
2022/06/06 01:44:47;;;;;;;;;;;14.90;99.90;;;;;;5031665;28;19925;-79
2022/06/06 01:47:33;;;;;;;;;;;14.90;99.90;;;;;;5005280;28;19924;-81
2022/06/06 01:49:59;;;;;;;;;;;14.80;99.90;;;;;;5006874;28;20366;-79
2022/06/06 01:52:25;;;;;;;;;;;14.70;99.90;;;;;;5016126;28;19979;-80
2022/06/06 01:54:55;;;;;;;;;;;14.60;99.90;;;;;;5012371;28;20067;-79
2022/06/06 01:57:21;;;;;;;;;;;14.50;99.90;;;;;;5015370;28;19917;-80
2022/06/06 01:59:47;;;;;;;;;;;14.50;99.90;;;;;;5032116;28;19928;-79
2022/06/06 02:02:12;;;;;;;;;;;14.50;99.90;;;;;;5000796;28;20286;-80
2022/06/06 02:04:38;;;;;;;;;;;14.00;99.90;;;;;;5014963;28;20269;-78
2022/06/06 02:07:04;;;;;;;;;;;14.40;99.90;;;;;;5053567;28;20062;-80
2022/06/06 02:09:31;;;;;;;;;;;14.30;99.90;;;;;;5021719;28;20342;-81
2022/06/06 02:11:58;;;;;;;;;;;14.30;99.90;;;;;;5004371;28;19970;-82
2022/06/06 02:14:24;;;;;;;;;;;14.20;99.90;;;;;;5056926;28;19962;-80
2022/06/06 02:16:49;;;;;;;;;;;14.20;99.90;;;;;;5017393;28;19920;-80
2022/06/06 02:19:15;;;;;;;;;;;14.20;99.90;;;;;;5009923;28;20003;-81
2022/06/06 02:21:40;;;;;;;;;;;14.10;99.90;;;;;;5015420;28;20008;-79
2022/06/06 02:24:06;;;;;;;;;;;14.10;99.90;;;;;;5022882;28;19927;-82
2022/06/06 02:26:32;;;;;;;;;;;14.10;99.90;;;;;;5001521;28;20378;-78
2022/06/06 02:28:57;;;;;;;;;;;14.00;99.90;;;;;;5016165;28;19920;-79
2022/06/06 02:31:23;;;;;;;;;;;13.90;99.90;;;;;;5056383;28;20004;-79
2022/06/06 02:33:49;;;;;;;;;;;13.90;99.90;;;;;;5033326;28;19917;-81
2022/06/06 02:36:14;;;;;;;;;;;13.90;99.90;;;;;;5018473;28;19970;-80
2022/06/06 02:38:40;;;;;;;;;;;13.90;99.90;;;;;;5034004;28;19917;-80
2022/06/06 02:41:08;;;;;;;;;;;13.90;99.90;;;;;;5022125;28;20278;-80
2022/06/06 02:43:35;;;;;;;;;;;13.90;99.90;;;;;;5006130;28;20298;-80
2022/06/06 02:46:03;;;;;;;;;;;13.80;99.90;;;;;;5033599;28;19924;-81
2022/06/06 02:48:30;;;;;;;;;;;13.80;99.90;;;;;;5031187;28;20272;-79
2022/06/06 02:50:56;;;;;;;;;;;13.80;99.90;;;;;;5036279;28;19917;-81
2022/06/06 02:53:22;;;;;;;;;;;13.80;99.90;;;;;;5019530;28;19920;-80
2022/06/06 02:55:50;;;;;;;;;;;13.80;99.90;;;;;;5005407;28;20302;-79
2022/06/06 02:58:15;;;;;;;;;;;13.70;99.90;;;;;;5023188;28;19916;-80
2022/06/06 03:00:43;;;;;;;;;;;13.80;99.90;;;;;;5007978;28;20048;-80
2022/06/06 03:03:08;;;;;;;;;;;13.80;99.90;;;;;;5047682;28;19929;-79
2022/06/06 03:05:38;;;;;;;;;;;13.70;99.90;;;;;;5007410;28;19924;-80
2022/06/06 03:08:10;;;;;;;;;;;13.70;99.90;;;;;;5035825;28;19917;-79
2022/06/06 03:10:44;;;;;;;;;;;13.70;99.90;;;;;;5001466;28;19986;-78
2022/06/06 03:13:10;;;;;;;;;;;13.70;99.90;;;;;;5034165;28;19917;-81
2022/06/06 03:21:38;;;;;;;;;;;13.70;99.90;;;;;;5022183;28;19924;-80
2022/06/06 03:24:22;;;;;;;;;;;13.70;99.90;;;;;;5029599;28;19924;-80
2022/06/06 03:26:51;;;;;;;;;;;13.70;99.90;;;;;;5021988;28;20382;-80
2022/06/06 03:29:37;;;;;;;;;;;13.70;99.90;;;;;;5004782;28;20378;-79
2022/06/06 03:32:21;;;;;;;;;;;13.70;99.90;;;;;;4984579;28;20007;-79
2022/06/06 03:34:54;;;;;;;;;;;13.70;99.90;;;;;;5030485;28;19917;-78
2022/06/06 03:37:27;;;;;;;;;;;13.70;99.90;;;;;;5031127;28;19970;-79
2022/06/06 03:40:02;;;;;;;;;;;13.70;99.90;;;;;;5042496;28;20001;-78
2022/06/06 03:42:34;;;;;;;;;;;13.70;99.90;;;;;;5028749;28;19917;-79
2022/06/06 03:45:19;;;;;;;;;;;13.70;99.90;;;;;;5058787;28;19944;-79
2022/06/06 03:48:03;;;;;;;;;;;13.70;99.90;;;;;;5020326;28;19964;-80
2022/06/06 03:50:38;;;;;;;;;;;13.70;99.90;;;;;;5034300;28;19916;-79
2022/06/06 03:53:20;;;;;;;;;;;13.70;99.90;;;;;;5039042;28;20251;-79
2022/06/06 03:55:46;;;;;;;;;;;13.70;99.90;;;;;;5018849;28;20012;-81
2022/06/06 03:58:14;;;;;;;;;;;13.70;99.90;;;;;;5020487;28;20234;-81
2022/06/06 04:00:40;;;;;;;;;;;13.70;99.90;;;;;;5030680;28;19917;-79
2022/06/06 04:03:06;;;;;;;;;;;13.70;99.90;;;;;;5032581;28;19927;-78
2022/06/06 04:05:35;;;;;;;;;;;13.70;99.90;;;;;;5014510;28;20000;-79
2022/06/06 04:08:00;;;;;;;;;;;13.70;99.90;;;;;;5063518;28;19916;-81
2022/06/06 04:10:30;;;;;;;;;;;13.60;99.90;;;;;;5037007;28;19924;-80
2022/06/06 04:12:56;;;;;;;;;;;13.70;99.90;;;;;;5026489;28;19921;-80
2022/06/06 04:15:27;;;;;;;;;;;13.60;99.90;;;;;;5069552;28;20389;-79
2022/06/06 04:17:53;;;;;;;;;;;13.70;99.90;;;;;;5026571;28;19921;-78
2022/06/06 04:20:34;;;;;;;;;;;13.70;99.90;;;;;;5053556;28;20007;-80
2022/06/06 04:23:10;;;;;;;;;;;13.70;99.90;;;;;;5009971;28;20397;-80
2022/06/06 04:25:48;;;;;;;;;;;13.70;99.90;;;;;;5023048;28;19917;-78
2022/06/06 04:28:17;;;;;;;;;;;13.70;99.90;;;;;;5010187;28;19917;-79
2022/06/06 04:30:52;;;;;;;;;;;13.70;99.90;;;;;;5004464;28;19917;-82
2022/06/06 04:33:19;;;;;;;;;;;13.70;99.90;;;;;;5017014;28;19924;-80
2022/06/06 04:35:57;;;;;;;;;;;13.70;99.90;;;;;;5017543;28;20556;-78
2022/06/06 04:38:30;;;;;;;;;;;13.70;99.90;;;;;;5054095;28;19920;-80
2022/06/06 04:41:05;;;;;;;;;;;13.80;99.90;;;;;;5032884;28;19961;-81
2022/06/06 04:43:52;;;;;;;;;;;13.70;99.90;;;;;;5028201;28;19925;-80
2022/06/06 04:46:27;;;;;;;;;;;13.80;99.90;;;;;;5005429;28;19917;-79
2022/06/06 04:48:53;;;;;;;;;;;13.80;99.90;;;;;;5002217;28;19921;-81
2022/06/06 04:51:20;;;;;;;;;;;13.80;99.90;;;;;;5027617;28;19924;-79
2022/06/06 04:53:48;;;;;;;;;;;13.80;99.90;;;;;;5002116;28;19986;-80
2022/06/06 04:56:16;;;;;;;;;;;13.80;99.90;;;;;;5034265;28;20382;-80
2022/06/06 04:58:42;;;;;;;;;;;13.80;99.90;;;;;;5037393;28;19927;-81
2022/06/06 05:01:10;;;;;;;;;;;13.80;99.90;;;;;;5033164;28;19921;-80
2022/06/06 05:03:35;;;;;;;;;;;13.80;99.90;;;;;;5008708;28;20059;-80
2022/06/06 05:06:01;;;;;;;;;;;13.80;99.90;;;;;;5023466;28;19964;-80
2022/06/06 05:08:45;;;;;;;;;;;13.80;99.90;;;;;;5044433;28;19917;-81
2022/06/06 05:11:11;;;;;;;;;;;13.80;99.90;;;;;;5034966;28;19920;-78
2022/06/06 05:13:39;;;;;;;;;;;13.80;99.90;;;;;;5009364;28;19923;-79
2022/06/06 05:16:24;;;;;;;;;;;13.90;99.90;;;;;;5036860;28;19920;-78
2022/06/06 05:19:01;;;;;;;;;;;13.90;99.90;;;;;;5037829;28;19917;-80
2022/06/06 05:21:59;;;;;;;;;;;13.90;99.90;;;;;;5051316;28;19924;-79
2022/06/06 05:24:37;;;;;;;;;;;13.80;99.90;;;;;;4976200;28;19951;-79
2022/06/06 05:27:10;;;;;;;;;;;13.80;99.90;;;;;;5034205;28;19924;-80
2022/06/06 05:29:42;;;;;;;;;;;13.80;99.90;;;;;;5016656;28;19917;-78
2022/06/06 05:32:26;;;;;;;;;;;13.70;99.90;;;;;;5051017;28;19924;-78
2022/06/06 05:35:28;;;;;;;;;;;13.70;99.90;;;;;;5034555;28;19921;-79
2022/06/06 05:38:03;;;;;;;;;;;13.70;99.90;;;;;;4978410;28;19917;-81
2022/06/06 05:40:37;;;;;;;;;;;13.60;99.90;;;;;;5036381;28;19956;-79
2022/06/06 05:43:03;;;;;;;;;;;13.60;99.90;;;;;;5063559;28;19975;-80
2022/06/06 05:45:35;;;;;;;;;;;13.50;99.90;;;;;;5028419;28;20289;-80
2022/06/06 05:48:00;;;;;;;;;;;13.50;99.90;;;;;;5031223;28;19931;-78
2022/06/06 05:50:34;;;;;;;;;;;13.50;99.90;;;;;;5000613;28;19921;-80
2022/06/06 05:53:18;;;;;;;;;;;13.50;99.90;;;;;;5049366;28;19974;-79
2022/06/06 05:55:44;;;;;;;;;;;13.50;99.90;;;;;;5005046;28;19960;-80
2022/06/06 05:58:16;;;;;;;;;;;13.40;99.90;;;;;;5022366;28;19955;-79
2022/06/06 06:00:49;;;;;;;;;;;13.40;99.90;;;;;;5035701;28;19921;-79
2022/06/06 06:03:50;;;;;;;;;;;13.40;99.90;;;;;;5015438;28;19979;-80
2022/06/06 06:06:40;;;;;;;;;;;13.40;99.90;;;;;;4980232;28;19917;-80
2022/06/06 06:09:12;;;;;;;;;;;13.40;99.90;;;;;;4995496;28;19967;-78
2022/06/06 06:11:37;;;;;;;;;;;13.40;99.90;;;;;;4979728;28;20376;-80
2022/06/06 06:14:12;;;;;;;;;;;13.40;99.90;;;;;;4982698;28;19994;-80
2022/06/06 06:16:41;;;;;;;;;;;13.40;99.90;;;;;;4994930;28;20290;-78
2022/06/06 06:19:11;;;;;;;;;;;13.40;99.90;;;;;;4976170;28;19917;-79
2022/06/06 06:21:41;;;;;;;;;;;13.40;99.90;;;;;;5022569;28;20511;-81
2022/06/06 06:24:10;;;;;;;;;;;13.50;99.90;;;;;;5004670;28;20314;-80
2022/06/06 06:26:36;;;;;;;;;;;13.40;99.90;;;;;;5010799;28;20431;-79
2022/06/06 06:29:03;;;;;;;;;;;13.40;99.90;;;;;;4986379;28;19963;-81
2022/06/06 06:31:49;;;;;;;;;;;13.40;99.90;;;;;;4992052;28;19917;-78
2022/06/06 06:34:20;;;;;;;;;;;13.40;99.90;;;;;;4979315;28;19917;-81
2022/06/06 06:36:49;;;;;;;;;;;13.40;99.90;;;;;;5004558;28;19924;-79
2022/06/06 06:39:29;;;;;;;;;;;13.30;99.90;;;;;;5059242;28;19917;-80
2022/06/06 06:42:19;;;;;;;;;;;13.30;99.90;;;;;;5030345;28;19921;-79
2022/06/06 06:45:08;;;;;;;;;;;13.30;99.90;;;;;;5060777;28;20039;-78
2022/06/06 06:47:35;;;;;;;;;;;13.30;99.90;;;;;;5033603;28;20322;-80
2022/06/06 06:50:10;;;;;;;;;;;13.20;99.90;;;;;;5025279;28;19917;-80
2022/06/06 06:52:55;;;;;;;;;;;13.30;99.90;;;;;;5019371;28;19917;-79
2022/06/06 06:55:28;;;;;;;;;;;13.40;99.90;;;;;;5007616;28;19923;-79
2022/06/06 06:58:12;;;;;;;;;;;13.60;99.90;;;;;;5020380;28;20478;-80
2022/06/06 07:00:46;;;;;;;;;;;13.80;99.90;;;;;;5038003;28;19918;-78
2022/06/06 07:09:23;;;;;;;;;;;14.10;99.90;;;;;;5016502;28;19917;-78
2022/06/06 07:11:51;;;;;;;;;;;14.10;99.90;;;;;;5004024;28;20035;-81
2022/06/06 07:14:20;;;;;;;;;;;14.20;99.90;;;;;;5054281;28;20423;-79
2022/06/06 07:16:49;;;;;;;;;;;14.30;99.90;;;;;;5048792;28;20326;-78
2022/06/06 07:19:19;;;;;;;;;;;14.50;99.90;;;;;;5002190;28;19917;-77
2022/06/06 07:21:46;;;;;;;;;;;14.60;99.90;;;;;;5017491;28;19941;-79
2022/06/06 07:24:15;;;;;;;;;;;14.60;99.90;;;;;;5017247;28;20008;-79
2022/06/06 07:26:42;;;;;;;;;;;14.50;99.90;;;;;;5029871;28;19917;-79
2022/06/06 07:29:09;;;;;;;;;;;14.40;99.90;;;;;;5008000;28;19916;-79
2022/06/06 07:31:40;;;;;;;;;;;14.40;99.90;;;;;;5022883;28;19928;-78
2022/06/06 07:34:25;;;;;;;;;;;14.30;99.90;;;;;;5053834;28;19928;-80
2022/06/06 07:37:06;;;;;;;;;;;14.30;99.90;;;;;;5037235;28;20152;-79
2022/06/06 07:39:51;;;;;;;;;;;14.40;99.90;;;;;;5035778;28;19936;-79
2022/06/06 07:42:28;;;;;;;;;;;14.60;99.90;;;;;;5000283;28;19924;-80
2022/06/06 07:44:54;;;;;;;;;;;14.90;99.90;;;;;;5029105;28;19921;-80
2022/06/06 07:47:29;;;;;;;;;;;14.90;99.90;;;;;;5032519;28;19928;-79
2022/06/06 07:49:59;;;;;;;;;;;14.90;99.90;;;;;;5015885;28;19971;-78
2022/06/06 07:52:37;;;;;;;;;;;14.70;99.90;;;;;;5017265;28;19927;-78
2022/06/06 07:55:22;;;;;;;;;;;14.70;99.90;;;;;;5011404;28;19925;-79
2022/06/06 07:57:59;;;;;;;;;;;14.70;99.90;;;;;;5010334;28;19917;-78
2022/06/06 08:00:28;;;;;;;;;;;14.80;99.90;;;;;;5018289;28;19925;-78
2022/06/06 08:03:09;;;;;;;;;;;15.00;99.90;;;;;;5043019;28;20310;-80
2022/06/06 08:05:54;;;;;;;;;;;15.20;99.90;;;;;;5010598;28;19928;-79
2022/06/06 08:08:30;;;;;;;;;;;15.50;99.90;;;;;;5017371;28;19917;-79
2022/06/06 08:11:00;;;;;;;;;;;15.80;99.90;;;;;;5015332;28;19928;-79
2022/06/06 08:13:36;;;;;;;;;;;15.90;99.90;;;;;;5003145;28;19917;-79
2022/06/06 08:16:05;;;;;;;;;;;15.90;99.90;;;;;;5040975;28;19921;-80
2022/06/06 08:18:33;;;;;;;;;;;16.00;99.90;;;;;;5028767;28;19929;-80
2022/06/06 08:21:18;;;;;;;;;;;15.90;99.90;;;;;;5027110;28;20059;-78
2022/06/06 08:23:44;;;;;;;;;;;16.00;99.90;;;;;;4996732;28;20350;-78
2022/06/06 08:26:10;;;;;;;;;;;16.00;99.90;;;;;;5044085;28;19948;-79
2022/06/06 08:28:37;;;;;;;;;;;15.90;99.90;;;;;;5015052;28;19917;-78
2022/06/06 08:31:04;;;;;;;;;;;15.90;99.90;;;;;;5034371;28;19924;-79
2022/06/06 08:33:30;;;;;;;;;;;15.70;99.90;;;;;;5033724;28;20016;-79
2022/06/06 08:36:11;;;;;;;;;;;15.80;99.90;;;;;;5027352;28;19956;-79
2022/06/06 08:38:43;;;;;;;;;;;15.90;99.90;;;;;;5039680;28;19917;-78
2022/06/06 08:41:12;;;;;;;;;;;16.20;99.90;;;;;;5070196;28;19917;-78
2022/06/06 08:43:51;;;;;;;;;;;16.50;99.90;;;;;;5029442;28;19928;-79
2022/06/06 08:46:17;;;;;;;;;;;16.60;99.90;;;;;;5007858;28;19972;-79
2022/06/06 08:48:58;;;;;;;;;;;16.80;99.90;;;;;;5028128;28;19952;-79
2022/06/06 08:51:33;;;;;;;;;;;17.00;99.90;;;;;;5032158;28;19917;-78
2022/06/06 08:54:08;;;;;;;;;;;17.10;99.90;;;;;;5015042;28;19925;-80
2022/06/06 08:56:37;;;;;;;;;;;17.20;99.90;;;;;;5028056;28;19925;-78
2022/06/06 08:59:09;;;;;;;;;;;17.10;99.90;;;;;;5016198;28;20604;-79
2022/06/06 09:01:46;;;;;;;;;;;16.80;99.90;;;;;;5032909;28;19921;-79
2022/06/06 09:04:31;;;;;;;;;;;16.50;99.90;;;;;;5022547;28;19971;-79
2022/06/06 09:06:59;;;;;;;;;;;16.30;99.90;;;;;;5028134;28;19918;-79
2022/06/06 09:09:31;;;;;;;;;;;16.40;99.90;;;;;;5026094;28;19921;-79
2022/06/06 09:12:15;;;;;;;;;;;16.30;99.90;;;;;;5028316;28;19917;-80
2022/06/06 09:15:00;;;;;;;;;;;16.10;99.90;;;;;;5018358;28;19921;-78
2022/06/06 09:17:41;;;;;;;;;;;16.00;99.90;;;;;;5027478;28;20290;-79
2022/06/06 09:20:22;;;;;;;;;;;15.90;99.90;;;;;;5043133;28;19921;-79
2022/06/06 09:22:47;;;;;;;;;;;15.80;99.90;;;;;;4999853;28;20375;-78
2022/06/06 09:25:33;;;;;;;;;;;15.80;99.90;;;;;;5016054;28;20004;-79
2022/06/06 09:28:18;;;;;;;;;;;15.90;99.90;;;;;;5030855;28;19917;-81
2022/06/06 09:30:55;;;;;;;;;;;16.00;99.90;;;;;;5022518;28;19924;-79
2022/06/06 09:33:22;;;;;;;;;;;16.00;99.90;;;;;;5017560;28;19926;-78
2022/06/06 09:35:48;;;;;;;;;;;16.10;99.90;;;;;;4985501;28;20363;-78
2022/06/06 09:38:14;;;;;;;;;;;16.50;99.90;;;;;;5029425;28;20000;-79
2022/06/06 09:41:06;;;;;;;;;;;16.80;99.90;;;;;;5016781;28;19917;-79
2022/06/06 09:43:37;;;;;;;;;;;17.00;99.90;;;;;;4987755;28;19925;-79
2022/06/06 09:46:16;;;;;;;;;;;17.30;99.90;;;;;;4998324;28;19921;-80
2022/06/06 09:49:00;;;;;;;;;;;17.50;99.90;;;;;;5022277;28;19972;-79
2022/06/06 09:51:45;;;;;;;;;;;17.50;99.90;;;;;;5049739;28;19967;-81
2022/06/06 10:00:23;;;;;;;;;;;17.50;99.90;;;;;;5017854;28;19971;-81
2022/06/06 10:02:52;;;;;;;;;;;17.60;99.90;;;;;;5023763;28;19964;-78
2022/06/06 10:05:36;;;;;;;;;;;17.50;99.90;;;;;;5027459;28;19929;-79
2022/06/06 10:08:08;;;;;;;;;;;17.40;99.90;;;;;;5031022;28;19921;-77
2022/06/06 10:10:33;;;;;;;;;;;17.50;99.90;;;;;;5033076;28;19917;-80
2022/06/06 10:13:18;;;;;;;;;;;17.50;99.90;;;;;;5028807;28;19922;-80
2022/06/06 10:15:58;;;;;;;;;;;17.60;99.90;;;;;;5029362;28;19940;-78
2022/06/06 10:18:24;;;;;;;;;;;17.70;99.90;;;;;;5027013;28;20326;-78
2022/06/06 10:21:09;;;;;;;;;;;17.70;99.90;;;;;;5023362;28;19916;-79
2022/06/06 10:23:41;;;;;;;;;;;17.70;99.90;;;;;;5061419;28;20326;-79
2022/06/06 10:26:27;;;;;;;;;;;17.90;99.90;;;;;;5026068;28;19921;-78
2022/06/06 10:29:05;;;;;;;;;;;18.00;99.90;;;;;;5008006;28;19960;-78
2022/06/06 10:31:37;;;;;;;;;;;18.20;99.90;;;;;;5030943;28;20508;-80
2022/06/06 10:34:22;;;;;;;;;;;18.30;99.90;;;;;;5014005;28;19971;-78
2022/06/06 10:36:51;;;;;;;;;;;18.40;99.90;;;;;;5015096;28;19917;-81
2022/06/06 10:39:16;;;;;;;;;;;18.90;99.90;;;;;;5016516;28;19918;-78
2022/06/06 10:42:09;;;;;;;;;;;19.20;99.90;;;;;;5027055;28;19940;-79
2022/06/06 10:44:53;;;;;;;;;;;19.40;99.90;;;;;;5013093;28;19968;-80
2022/06/06 10:47:25;;;;;;;;;;;19.30;99.90;;;;;;4993329;28;19922;-78
2022/06/06 10:50:06;;;;;;;;;;;19.20;99.90;;;;;;5000319;28;19921;-79
2022/06/06 10:52:32;;;;;;;;;;;18.90;99.90;;;;;;5034118;28;20391;-79
2022/06/06 10:55:01;;;;;;;;;;;18.70;99.90;;;;;;5062069;28;20345;-78
2022/06/06 10:57:33;;;;;;;;;;;18.50;99.90;;;;;;4997926;28;19917;-81
2022/06/06 11:00:17;;;;;;;;;;;18.40;99.90;;;;;;5030663;28;20362;-78
2022/06/06 11:02:43;;;;;;;;;;;18.50;99.90;;;;;;5013732;28;20358;-80
2022/06/06 11:05:08;;;;;;;;;;;18.60;99.90;;;;;;5018207;28;20266;-80
2022/06/06 11:07:44;;;;;;;;;;;18.70;99.90;;;;;;5047760;28;19996;-79
2022/06/06 11:10:29;;;;;;;;;;;18.90;99.90;;;;;;5000034;28;19933;-79
2022/06/06 11:12:54;;;;;;;;;;;19.00;99.90;;;;;;5026428;28;19963;-79
2022/06/06 11:15:20;;;;;;;;;;;18.90;99.90;;;;;;5048063;28;19917;-79
2022/06/06 11:17:57;;;;;;;;;;;19.00;99.90;;;;;;5033622;28;20024;-78
2022/06/06 11:20:35;;;;;;;;;;;19.00;99.90;;;;;;5032313;28;20338;-78
2022/06/06 11:23:06;;;;;;;;;;;18.90;99.90;;;;;;5034253;28;20055;-80
2022/06/06 11:25:51;;;;;;;;;;;19.10;99.90;;;;;;5013823;28;20302;-77
2022/06/06 11:28:33;;;;;;;;;;;19.20;99.90;;;;;;5030666;28;19924;-78
2022/06/06 11:31:10;;;;;;;;;;;19.20;99.90;;;;;;5020155;28;19964;-80
2022/06/06 11:33:54;;;;;;;;;;;19.50;99.90;;;;;;5011883;28;21462;-79
2022/06/06 11:36:46;;;;;;;;;;;19.80;99.90;;;;;;5013086;28;20351;-80
2022/06/06 11:39:11;;;;;;;;;;;19.70;99.90;;;;;;4990354;28;19995;-79
2022/06/06 11:41:56;;;;;;;;;;;19.30;99.90;;;;;;5012818;28;20391;-80
2022/06/06 11:44:39;;;;;;;;;;;18.90;99.90;;;;;;5061850;28;19932;-78
2022/06/06 11:47:20;;;;;;;;;;;18.30;99.90;;;;;;5050493;28;20260;-78
2022/06/06 11:50:04;;;;;;;;;;;17.70;99.90;;;;;;5049613;28;19921;-79
2022/06/06 11:52:42;;;;;;;;;;;17.80;99.90;;;;;;5055196;28;20386;-79
2022/06/06 11:55:08;;;;;;;;;;;18.00;99.90;;;;;;5040112;28;19917;-78
2022/06/06 11:57:42;;;;;;;;;;;18.20;99.90;;;;;;5033329;28;20289;-80
2022/06/06 12:00:08;;;;;;;;;;;18.50;99.90;;;;;;5024915;28;20317;-79
2022/06/06 12:02:56;;;;;;;;;;;18.90;99.90;;;;;;5004692;28;19924;-79
2022/06/06 12:05:30;;;;;;;;;;;19.00;99.90;;;;;;5026763;28;19932;-79
2022/06/06 12:08:15;;;;;;;;;;;19.00;99.90;;;;;;5053178;28;20370;-79
2022/06/06 12:10:53;;;;;;;;;;;18.90;99.90;;;;;;5025122;28;19959;-80
2022/06/06 12:13:22;;;;;;;;;;;18.70;99.90;;;;;;5033657;28;19917;-79
2022/06/06 12:15:57;;;;;;;;;;;18.40;99.90;;;;;;5019348;28;19924;-79
2022/06/06 12:18:29;;;;;;;;;;;18.10;99.90;;;;;;5045257;28;19960;-78
2022/06/06 12:20:54;;;;;;;;;;;18.00;99.90;;;;;;5047411;28;19917;-79
2022/06/06 12:23:39;;;;;;;;;;;17.90;99.90;;;;;;5014647;28;19927;-78
2022/06/06 12:26:17;;;;;;;;;;;17.90;99.90;;;;;;5018589;28;19925;-80
2022/06/06 12:28:54;;;;;;;;;;;18.20;99.90;;;;;;5056035;28;19939;-80
2022/06/06 12:31:37;;;;;;;;;;;18.60;99.90;;;;;;5019824;28;20013;-79
2022/06/06 12:34:06;;;;;;;;;;;18.80;99.90;;;;;;5003153;28;19924;-80
2022/06/06 12:37:01;;;;;;;;;;;19.00;99.90;;;;;;5045173;28;20005;-82
2022/06/06 12:39:27;;;;;;;;;;;19.00;99.90;;;;;;5010388;28;20289;-80
2022/06/06 12:42:17;;;;;;;;;;;18.60;99.90;;;;;;5036489;28;19917;-81
2022/06/06 12:45:06;;;;;;;;;;;18.30;99.90;;;;;;5031146;28;19975;-80
2022/06/06 12:47:31;;;;;;;;;;;17.50;99.90;;;;;;5040375;28;19928;-79
2022/06/06 12:49:57;;;;;;;;;;;16.80;99.90;;;;;;5014382;28;20397;-82
2022/06/06 12:52:41;;;;;;;;;;;16.40;99.90;;;;;;5034013;28;19921;-78
2022/06/06 12:55:34;;;;;;;;;;;16.10;99.90;;;;;;5043709;28;19924;-80
2022/06/06 12:58:18;;;;;;;;;;;15.90;99.90;;;;;;5053439;28;19921;-81
2022/06/06 13:03:45;;;;;;;;;;;15.50;99.90;;;;;;5048765;28;19925;-78
2022/06/06 13:06:14;;;;;;;;;;;15.40;99.90;;;;;;5007890;28;20366;-80
2022/06/06 13:08:39;;;;;;;;;;;15.40;99.90;;;;;;5012209;28;19967;-79
2022/06/06 13:11:26;;;;;;;;;;;15.30;99.90;;;;;;5051982;28;19925;-80
2022/06/06 13:13:57;;;;;;;;;;;15.20;99.90;;;;;;5011407;28;19921;-82
2022/06/06 13:16:38;;;;;;;;;;;15.10;99.90;;;;;;5033483;28;19921;-80
2022/06/06 13:19:16;;;;;;;;;;;15.00;99.90;;;;;;5049176;28;20355;-80
2022/06/06 13:21:54;;;;;;;;;;;14.90;99.90;;;;;;5033889;28;19925;-80
2022/06/06 13:24:38;;;;;;;;;;;15.00;99.90;;;;;;5020159;28;20442;-80
2022/06/06 13:27:18;;;;;;;;;;;15.10;99.90;;;;;;5016103;28;19939;-79
2022/06/06 13:29:46;;;;;;;;;;;15.40;99.90;;;;;;5033868;28;19932;-77
2022/06/06 13:32:18;;;;;;;;;;;15.60;99.90;;;;;;5024041;28;20378;-79
2022/06/06 13:34:50;;;;;;;;;;;15.90;99.90;;;;;;5032350;28;20374;-78
2022/06/06 13:37:25;;;;;;;;;;;16.00;99.90;;;;;;5048778;28;19917;-77
2022/06/06 13:39:57;;;;;;;;;;;16.10;99.90;;;;;;5033655;28;20326;-78
2022/06/06 13:42:35;;;;;;;;;;;16.10;99.90;;;;;;5043865;28;20553;-79
2022/06/06 13:45:04;;;;;;;;;;;16.00;99.90;;;;;;5034345;28;19924;-79
2022/06/06 13:47:44;;;;;;;;;;;15.90;99.90;;;;;;5052438;28;20019;-80
2022/06/06 13:50:17;;;;;;;;;;;15.70;99.90;;;;;;5038543;28;19924;-80
2022/06/06 13:53:02;;;;;;;;;;;15.50;99.90;;;;;;5014249;28;19917;-81
2022/06/06 13:55:28;;;;;;;;;;;15.20;99.90;;;;;;4996697;28;19917;-82
2022/06/06 13:58:12;;;;;;;;;;;14.90;99.90;;;;;;5044486;28;20012;-83
2022/06/06 14:00:44;;;;;;;;;;;14.60;99.90;;;;;;5035586;28;19924;-82
2022/06/06 14:03:17;;;;;;;;;;;14.60;99.90;;;;;;5002269;28;19925;-83
2022/06/06 14:05:54;;;;;;;;;;;14.50;99.90;;;;;;5026906;28;19917;-81
2022/06/06 14:08:20;;;;;;;;;;;14.50;99.90;;;;;;5021689;28;19960;-79
2022/06/06 14:10:58;;;;;;;;;;;14.50;99.90;;;;;;5007807;28;19956;-80
2022/06/06 14:13:48;;;;;;;;;;;14.50;99.90;;;;;;5017712;28;19917;-80
2022/06/06 14:16:15;;;;;;;;;;;14.50;99.90;;;;;;5052494;28;19917;-80
2022/06/06 14:18:41;;;;;;;;;;;14.50;99.90;;;;;;5023633;28;20285;-80
2022/06/06 14:21:06;;;;;;;;;;;14.50;99.90;;;;;;5006844;28;19917;-84
2022/06/06 14:23:35;;;;;;;;;;;14.40;99.90;;;;;;5031669;28;19921;-83
2022/06/06 14:26:02;;;;;;;;;;;14.30;99.90;;;;;;5020250;28;19921;-81
2022/06/06 14:28:29;;;;;;;;;;;14.30;99.90;;;;;;5002260;28;19917;-82
2022/06/06 14:30:55;;;;;;;;;;;14.30;99.90;;;;;;5009760;28;19991;-84
2022/06/06 14:33:23;;;;;;;;;;;14.30;99.90;;;;;;5031401;28;19917;-82
2022/06/06 14:35:48;;;;;;;;;;;14.30;99.90;;;;;;5022370;28;20405;-82
2022/06/06 14:38:17;;;;;;;;;;;14.30;99.90;;;;;;5017889;28;19994;-82
2022/06/06 14:40:53;;;;;;;;;;;14.30;99.90;;;;;;5016653;28;20383;-83
2022/06/06 14:43:20;;;;;;;;;;;14.20;99.90;;;;;;5048275;28;20301;-82
2022/06/06 14:45:51;;;;;;;;;;;14.10;99.90;;;;;;5031687;28;19916;-81
2022/06/06 14:48:18;;;;;;;;;;;14.00;99.90;;;;;;5053816;28;19971;-82
2022/06/06 14:50:56;;;;;;;;;;;13.90;99.90;;;;;;5015729;28;19916;-81
2022/06/06 14:53:28;;;;;;;;;;;13.80;99.90;;;;;;5011268;28;19995;-82
2022/06/06 14:55:56;;;;;;;;;;;13.80;99.90;;;;;;5014738;28;19917;-82
2022/06/06 14:58:24;;;;;;;;;;;13.90;99.90;;;;;;5046949;28;20016;-81
2022/06/06 15:01:00;;;;;;;;;;;13.90;99.90;;;;;;5015208;28;19917;-82
2022/06/06 15:03:34;;;;;;;;;;;13.90;99.90;;;;;;5059836;28;19925;-83
2022/06/06 15:06:20;;;;;;;;;;;14.00;99.90;;;;;;5014782;28;19917;-81
2022/06/06 15:08:53;;;;;;;;;;;13.90;99.90;;;;;;4993791;28;19978;-83
2022/06/06 15:11:22;;;;;;;;;;;13.90;99.90;;;;;;5016844;28;20015;-83
2022/06/06 15:13:55;;;;;;;;;;;13.80;99.90;;;;;;5017535;28;19916;-84
2022/06/06 15:16:22;;;;;;;;;;;13.70;99.90;;;;;;5033329;28;19917;-83
2022/06/06 15:18:56;;;;;;;;;;;13.60;99.90;;;;;;5051681;28;20008;-81